sensor_id;sensor_type;location;lat;lon;timestamp;pressure;altitude;pressure_sealevel;temperature;humidity
31717;BME280;18301;51.076;17.046;2024-01-06T00:02:45;99120.94;;;3.73;91.66
31717;BME280;18301;51.076;17.046;2024-01-06T00:07:47;99133.69;;;3.68;91.69
31717;BME280;18301;51.076;17.046;2024-01-06T00:12:49;99130.06;;;3.69;91.59
31717;BME280;18301;51.076;17.046;2024-01-06T00:17:50;99126.31;;;3.59;92.31
31717;BME280;18301;51.076;17.046;2024-01-06T00:22:52;99130.28;;;3.66;91.99
31717;BME280;18301;51.076;17.046;2024-01-06T00:27:54;99132.72;;;3.69;91.85
31717;BME280;18301;51.076;17.046;2024-01-06T00:32:55;99140.75;;;3.69;91.25
31717;BME280;18301;51.076;17.046;2024-01-06T00:37:57;99131.41;;;3.76;91.75
31717;BME280;18301;51.076;17.046;2024-01-06T00:43:02;99137.13;;;3.70;91.24
31717;BME280;18301;51.076;17.046;2024-01-06T00:48:04;99143.81;;;3.63;91.15
31717;BME280;18301;51.076;17.046;2024-01-06T00:53:06;99146.69;;;3.60;91.67
31717;BME280;18301;51.076;17.046;2024-01-06T00:58:08;99148.81;;;3.55;92.36
31717;BME280;18301;51.076;17.046;2024-01-06T01:03:10;99144.38;;;3.68;91.56
31717;BME280;18301;51.076;17.046;2024-01-06T01:08:12;99142.41;;;3.57;92.13
31717;BME280;18301;51.076;17.046;2024-01-06T01:13:13;99140.94;;;3.66;92.02
31717;BME280;18301;51.076;17.046;2024-01-06T01:18:15;99158.31;;;3.59;92.47
31717;BME280;18301;51.076;17.046;2024-01-06T01:23:17;99159.63;;;3.66;91.15
31717;BME280;18301;51.076;17.046;2024-01-06T01:28:18;99159.53;;;3.67;92.42
31717;BME280;18301;51.076;17.046;2024-01-06T01:33:20;99158.31;;;3.59;92.10
31717;BME280;18301;51.076;17.046;2024-01-06T01:38:22;99160.59;;;3.51;93.07
31717;BME280;18301;51.076;17.046;2024-01-06T01:43:24;99165.00;;;3.52;92.43
31717;BME280;18301;51.076;17.046;2024-01-06T01:48:25;99161.56;;;3.50;93.27
31717;BME280;18301;51.076;17.046;2024-01-06T01:53:28;99180.22;;;3.64;91.95
31717;BME280;18301;51.076;17.046;2024-01-06T01:58:29;99166.13;;;3.47;92.83
31717;BME280;18301;51.076;17.046;2024-01-06T02:03:32;99162.03;;;3.56;91.78
31717;BME280;18301;51.076;17.046;2024-01-06T02:08:34;99159.03;;;3.48;92.06
31717;BME280;18301;51.076;17.046;2024-01-06T02:13:36;99164.56;;;3.45;92.15
31717;BME280;18301;51.076;17.046;2024-01-06T02:18:39;99156.81;;;3.55;92.36
31717;BME280;18301;51.076;17.046;2024-01-06T02:23:40;99149.41;;;3.45;92.62
31717;BME280;18301;51.076;17.046;2024-01-06T02:28:42;99146.34;;;3.52;93.22
31717;BME280;18301;51.076;17.046;2024-01-06T02:33:49;99144.78;;;3.62;92.13
31717;BME280;18301;51.076;17.046;2024-01-06T02:38:51;99149.47;;;3.58;91.80
31717;BME280;18301;51.076;17.046;2024-01-06T02:43:54;99154.72;;;3.45;91.99
31717;BME280;18301;51.076;17.046;2024-01-06T02:48:56;99165.00;;;3.52;91.91
31717;BME280;18301;51.076;17.046;2024-01-06T02:53:58;99167.69;;;3.52;92.09
31717;BME280;18301;51.076;17.046;2024-01-06T02:58:59;99166.25;;;3.46;92.86
31717;BME280;18301;51.076;17.046;2024-01-06T03:04:01;99160.97;;;3.59;91.91
31717;BME280;18301;51.076;17.046;2024-01-06T03:09:03;99154.25;;;3.80;90.16
31717;BME280;18301;51.076;17.046;2024-01-06T03:14:04;99149.69;;;3.41;91.40
31717;BME280;18301;51.076;17.046;2024-01-06T03:19:06;99158.53;;;3.41;92.14
31717;BME280;18301;51.076;17.046;2024-01-06T03:24:08;99165.22;;;3.49;92.45
31717;BME280;18301;51.076;17.046;2024-01-06T03:29:10;99175.28;;;3.58;92.10
31717;BME280;18301;51.076;17.046;2024-01-06T03:34:13;99172.75;;;3.69;90.76
31717;BME280;18301;51.076;17.046;2024-01-06T03:39:15;99172.25;;;3.50;91.52
31717;BME280;18301;51.076;17.046;2024-01-06T03:44:16;99185.75;;;3.61;90.51
31717;BME280;18301;51.076;17.046;2024-01-06T03:49:18;99194.88;;;3.57;91.46
31717;BME280;18301;51.076;17.046;2024-01-06T03:54:22;99184.38;;;3.68;90.72
31717;BME280;18301;51.076;17.046;2024-01-06T03:59:24;99183.47;;;3.55;91.32
31717;BME280;18301;51.076;17.046;2024-01-06T04:04:25;99181.75;;;3.54;91.02
31717;BME280;18301;51.076;17.046;2024-01-06T04:09:27;99186.50;;;3.63;90.53
31717;BME280;18301;51.076;17.046;2024-01-06T04:14:29;99177.50;;;3.51;91.00
31717;BME280;18301;51.076;17.046;2024-01-06T04:19:30;99190.34;;;3.44;91.51
31717;BME280;18301;51.076;17.046;2024-01-06T04:24:32;99192.72;;;3.63;91.08
31717;BME280;18301;51.076;17.046;2024-01-06T04:29:38;99197.41;;;3.45;91.55
31717;BME280;18301;51.076;17.046;2024-01-06T04:34:40;99201.19;;;3.41;91.90
31717;BME280;18301;51.076;17.046;2024-01-06T04:39:43;99195.88;;;3.41;91.75
31717;BME280;18301;51.076;17.046;2024-01-06T04:44:45;99204.44;;;3.32;91.99
31717;BME280;18301;51.076;17.046;2024-01-06T04:49:46;99208.47;;;3.39;91.84
31717;BME280;18301;51.076;17.046;2024-01-06T04:54:48;99214.72;;;3.38;91.45
31717;BME280;18301;51.076;17.046;2024-01-06T04:59:50;99216.84;;;3.33;92.06
31717;BME280;18301;51.076;17.046;2024-01-06T05:04:52;99220.84;;;3.40;90.98
31717;BME280;18301;51.076;17.046;2024-01-06T05:09:53;99227.50;;;3.33;90.39
31717;BME280;18301;51.076;17.046;2024-01-06T05:14:55;99228.09;;;3.10;90.80
31717;BME280;18301;51.076;17.046;2024-01-06T05:19:58;99248.47;;;3.25;91.09
31717;BME280;18301;51.076;17.046;2024-01-06T05:24:59;99250.72;;;3.17;91.71
31717;BME280;18301;51.076;17.046;2024-01-06T05:30:02;99253.41;;;3.31;91.91
31717;BME280;18301;51.076;17.046;2024-01-06T05:35:04;99267.50;;;3.33;90.74
31717;BME280;18301;51.076;17.046;2024-01-06T05:40:06;99264.25;;;3.28;90.42
31717;BME280;18301;51.076;17.046;2024-01-06T05:45:11;99267.03;;;3.27;90.76
31717;BME280;18301;51.076;17.046;2024-01-06T05:50:15;99271.09;;;3.32;90.35
31717;BME280;18301;51.076;17.046;2024-01-06T05:55:17;99274.34;;;3.23;90.79
31717;BME280;18301;51.076;17.046;2024-01-06T06:00:19;99277.56;;;3.14;91.34
31717;BME280;18301;51.076;17.046;2024-01-06T06:05:21;99280.06;;;3.17;90.69
31717;BME280;18301;51.076;17.046;2024-01-06T06:10:22;99287.56;;;3.10;91.66
31717;BME280;18301;51.076;17.046;2024-01-06T06:15:24;99277.75;;;3.11;92.11
31717;BME280;18301;51.076;17.046;2024-01-06T06:20:26;99288.41;;;3.11;91.85
31717;BME280;18301;51.076;17.046;2024-01-06T06:25:27;99287.13;;;3.18;90.92
31717;BME280;18301;51.076;17.046;2024-01-06T06:30:29;99286.31;;;3.02;91.68
31717;BME280;18301;51.076;17.046;2024-01-06T06:35:31;99294.31;;;3.02;90.29
31717;BME280;18301;51.076;17.046;2024-01-06T06:40:32;99310.63;;;3.11;90.52
31717;BME280;18301;51.076;17.046;2024-01-06T06:45:34;99322.50;;;3.06;89.75
31717;BME280;18301;51.076;17.046;2024-01-06T06:50:36;99330.22;;;3.10;91.20
31717;BME280;18301;51.076;17.046;2024-01-06T06:55:38;99335.47;;;3.12;91.15
31717;BME280;18301;51.076;17.046;2024-01-06T07:00:40;99351.53;;;3.10;90.98
31717;BME280;18301;51.076;17.046;2024-01-06T07:05:42;99354.22;;;3.10;90.83
31717;BME280;18301;51.076;17.046;2024-01-06T07:10:44;99356.63;;;3.15;89.62
31717;BME280;18301;51.076;17.046;2024-01-06T07:15:46;99349.91;;;3.08;89.73
31717;BME280;18301;51.076;17.046;2024-01-06T07:20:47;99357.72;;;3.11;89.31
31717;BME280;18301;51.076;17.046;2024-01-06T07:25:49;99355.16;;;3.09;89.52
31717;BME280;18301;51.076;17.046;2024-01-06T07:30:51;99362.84;;;2.99;89.43
31717;BME280;18301;51.076;17.046;2024-01-06T07:35:53;99365.47;;;3.15;89.59
31717;BME280;18301;51.076;17.046;2024-01-06T07:40:54;99370.88;;;3.14;89.33
31717;BME280;18301;51.076;17.046;2024-01-06T07:45:56;99389.34;;;3.17;88.94
31717;BME280;18301;51.076;17.046;2024-01-06T07:50:58;99387.81;;;3.13;89.00
31717;BME280;18301;51.076;17.046;2024-01-06T07:56:00;99385.75;;;3.18;88.60
31717;BME280;18301;51.076;17.046;2024-01-06T08:01:01;99404.09;;;3.08;88.81
31717;BME280;18301;51.076;17.046;2024-01-06T08:06:03;99408.97;;;3.16;87.84
31717;BME280;18301;51.076;17.046;2024-01-06T08:11:05;99419.44;;;3.19;87.55
31717;BME280;18301;51.076;17.046;2024-01-06T08:16:07;99420.91;;;3.25;87.97
31717;BME280;18301;51.076;17.046;2024-01-06T08:21:08;99424.53;;;3.23;88.46
31717;BME280;18301;51.076;17.046;2024-01-06T08:26:10;99429.75;;;3.25;88.14
31717;BME280;18301;51.076;17.046;2024-01-06T08:31:14;99443.53;;;3.17;88.76
31717;BME280;18301;51.076;17.046;2024-01-06T08:36:16;99430.53;;;3.27;88.69
31717;BME280;18301;51.076;17.046;2024-01-06T08:41:18;99449.38;;;3.24;87.46
31717;BME280;18301;51.076;17.046;2024-01-06T08:46:20;99457.25;;;3.26;88.19
31717;BME280;18301;51.076;17.046;2024-01-06T08:51:21;99461.25;;;3.18;89.08
31717;BME280;18301;51.076;17.046;2024-01-06T08:56:23;99479.25;;;3.29;89.34
31717;BME280;18301;51.076;17.046;2024-01-06T09:01:25;99478.16;;;3.33;88.97
31717;BME280;18301;51.076;17.046;2024-01-06T09:06:27;99475.19;;;3.23;88.94
31717;BME280;18301;51.076;17.046;2024-01-06T09:11:28;99483.44;;;3.19;89.50
31717;BME280;18301;51.076;17.046;2024-01-06T09:16:30;99488.50;;;3.23;89.83
31717;BME280;18301;51.076;17.046;2024-01-06T09:21:31;99493.47;;;3.14;89.56
31717;BME280;18301;51.076;17.046;2024-01-06T09:26:33;99501.31;;;3.17;90.41
31717;BME280;18301;51.076;17.046;2024-01-06T09:31:38;99510.34;;;3.30;90.14
31717;BME280;18301;51.076;17.046;2024-01-06T09:36:40;99500.88;;;3.25;89.34
31717;BME280;18301;51.076;17.046;2024-01-06T09:41:42;99506.22;;;3.25;89.45
31717;BME280;18301;51.076;17.046;2024-01-06T09:46:44;99506.28;;;3.23;88.78
31717;BME280;18301;51.076;17.046;2024-01-06T09:51:48;99501.25;;;3.03;89.03
31717;BME280;18301;51.076;17.046;2024-01-06T09:56:52;99512.84;;;3.02;89.47
31717;BME280;18301;51.076;17.046;2024-01-06T10:01:55;99510.44;;;3.13;89.54
31717;BME280;18301;51.076;17.046;2024-01-06T10:06:57;99512.69;;;3.05;89.17
31717;BME280;18301;51.076;17.046;2024-01-06T10:11:59;99520.50;;;3.08;89.47
31717;BME280;18301;51.076;17.046;2024-01-06T10:17:01;99520.06;;;3.15;89.78
31717;BME280;18301;51.076;17.046;2024-01-06T10:22:04;99528.84;;;3.02;89.88
31717;BME280;18301;51.076;17.046;2024-01-06T10:27:06;99534.09;;;3.19;90.23
31717;BME280;18301;51.076;17.046;2024-01-06T10:32:10;99530.72;;;3.15;90.57
31717;BME280;18301;51.076;17.046;2024-01-06T10:37:12;99529.75;;;3.32;90.17
31717;BME280;18301;51.076;17.046;2024-01-06T10:42:14;99528.31;;;3.27;89.73
31717;BME280;18301;51.076;17.046;2024-01-06T10:47:17;99530.19;;;3.40;88.50
31717;BME280;18301;51.076;17.046;2024-01-06T10:52:20;99521.88;;;3.15;89.24
31717;BME280;18301;51.076;17.046;2024-01-06T10:57:23;99526.63;;;2.94;90.09
31717;BME280;18301;51.076;17.046;2024-01-06T11:02:26;99513.19;;;2.95;90.95
31717;BME280;18301;51.076;17.046;2024-01-06T11:07:28;99513.19;;;2.95;90.93
31717;BME280;18301;51.076;17.046;2024-01-06T11:12:30;99511.66;;;2.91;90.35
31717;BME280;18301;51.076;17.046;2024-01-06T11:23:17;99530.41;;;3.06;91.08
31717;BME280;18301;51.076;17.046;2024-01-06T11:28:20;99534.25;;;3.16;90.85
31717;BME280;18301;51.076;17.046;2024-01-06T11:33:22;99534.69;;;3.24;89.09
31717;BME280;18301;51.076;17.046;2024-01-06T11:38:24;99526.09;;;3.03;89.75
31717;BME280;18301;51.076;17.046;2024-01-06T11:43:26;99547.94;;;3.10;89.56
31717;BME280;18301;51.076;17.046;2024-01-06T11:48:29;99540.72;;;2.96;90.23
31717;BME280;18301;51.076;17.046;2024-01-06T11:53:33;99535.22;;;2.99;89.88
31717;BME280;18301;51.076;17.046;2024-01-06T11:58:35;99532.97;;;3.07;89.27
31717;BME280;18301;51.076;17.046;2024-01-06T12:03:36;99536.16;;;2.82;90.15
31717;BME280;18301;51.076;17.046;2024-01-06T12:08:38;99542.63;;;2.78;89.67
31717;BME280;18301;51.076;17.046;2024-01-06T12:13:40;99535.38;;;2.64;89.31
31717;BME280;18301;51.076;17.046;2024-01-06T12:18:42;99541.03;;;2.74;89.08
31717;BME280;18301;51.076;17.046;2024-01-06T12:23:44;99544.81;;;2.70;88.72
31717;BME280;18301;51.076;17.046;2024-01-06T12:28:46;99543.13;;;2.69;88.89
31717;BME280;18301;51.076;17.046;2024-01-06T12:33:48;99548.59;;;2.50;89.88
31717;BME280;18301;51.076;17.046;2024-01-06T12:38:50;99551.94;;;2.53;89.26
31717;BME280;18301;51.076;17.046;2024-01-06T12:43:52;99557.19;;;2.71;89.00
31717;BME280;18301;51.076;17.046;2024-01-06T12:48:54;99553.78;;;2.69;89.04
31717;BME280;18301;51.076;17.046;2024-01-06T12:53:56;99568.88;;;2.52;89.66
31717;BME280;18301;51.076;17.046;2024-01-06T12:58:58;99558.91;;;2.56;89.41
31717;BME280;18301;51.076;17.046;2024-01-06T13:03:59;99565.53;;;2.65;88.65
31717;BME280;18301;51.076;17.046;2024-01-06T13:09:03;99567.66;;;2.58;87.96
31717;BME280;18301;51.076;17.046;2024-01-06T13:14:08;99570.09;;;2.63;87.76
31717;BME280;18301;51.076;17.046;2024-01-06T13:19:10;99575.91;;;2.53;89.10
31717;BME280;18301;51.076;17.046;2024-01-06T13:24:12;99574.22;;;2.52;88.86
31717;BME280;18301;51.076;17.046;2024-01-06T13:29:13;99587.72;;;2.65;88.76
31717;BME280;18301;51.076;17.046;2024-01-06T13:34:15;99588.06;;;2.59;88.64
31717;BME280;18301;51.076;17.046;2024-01-06T13:39:17;99596.56;;;2.66;88.66
31717;BME280;18301;51.076;17.046;2024-01-06T13:44:22;99608.38;;;2.44;88.32
31717;BME280;18301;51.076;17.046;2024-01-06T13:49:24;99607.47;;;2.28;87.35
31717;BME280;18301;51.076;17.046;2024-01-06T13:54:26;99619.97;;;2.26;87.94
31717;BME280;18301;51.076;17.046;2024-01-06T13:59:28;99613.03;;;2.57;87.67
31717;BME280;18301;51.076;17.046;2024-01-06T14:04:30;99624.50;;;2.41;87.11
31717;BME280;18301;51.076;17.046;2024-01-06T14:09:32;99631.59;;;2.25;88.45
31717;BME280;18301;51.076;17.046;2024-01-06T14:14:33;99633.03;;;2.30;87.17
31717;BME280;18301;51.076;17.046;2024-01-06T14:19:36;99642.06;;;2.28;87.03
31717;BME280;18301;51.076;17.046;2024-01-06T14:24:38;99656.00;;;2.16;87.28
31717;BME280;18301;51.076;17.046;2024-01-06T14:29:41;99662.19;;;2.16;87.69
31717;BME280;18301;51.076;17.046;2024-01-06T14:34:42;99670.09;;;2.18;87.15
31717;BME280;18301;51.076;17.046;2024-01-06T14:39:44;99674.94;;;2.10;87.53
31717;BME280;18301;51.076;17.046;2024-01-06T14:44:47;99683.34;;;2.19;87.46
31717;BME280;18301;51.076;17.046;2024-01-06T14:49:48;99682.34;;;2.03;87.30
31717;BME280;18301;51.076;17.046;2024-01-06T14:54:50;99682.03;;;2.09;87.39
31717;BME280;18301;51.076;17.046;2024-01-06T14:59:52;99675.09;;;2.06;87.79
31717;BME280;18301;51.076;17.046;2024-01-06T15:04:54;99677.63;;;2.10;87.56
31717;BME280;18301;51.076;17.046;2024-01-06T15:10:00;99686.66;;;2.05;86.67
31717;BME280;18301;51.076;17.046;2024-01-06T15:15:05;99690.31;;;2.22;86.83
31717;BME280;18301;51.076;17.046;2024-01-06T15:20:08;99687.22;;;2.12;87.19
31717;BME280;18301;51.076;17.046;2024-01-06T15:25:11;99693.59;;;1.91;87.61
31717;BME280;18301;51.076;17.046;2024-01-06T15:30:13;99696.56;;;1.67;88.16
31717;BME280;18301;51.076;17.046;2024-01-06T15:35:17;99708.16;;;1.83;88.34
31717;BME280;18301;51.076;17.046;2024-01-06T15:40:21;99718.91;;;1.99;86.82
31717;BME280;18301;51.076;17.046;2024-01-06T15:45:23;99711.38;;;1.90;88.11
31717;BME280;18301;51.076;17.046;2024-01-06T15:50:25;99707.34;;;2.00;88.29
31717;BME280;18301;51.076;17.046;2024-01-06T15:55:26;99707.41;;;1.99;88.02
31717;BME280;18301;51.076;17.046;2024-01-06T16:00:28;99712.03;;;1.95;87.89
31717;BME280;18301;51.076;17.046;2024-01-06T16:05:30;99721.25;;;1.88;88.29
31717;BME280;18301;51.076;17.046;2024-01-06T16:10:32;99723.88;;;1.71;88.78
31717;BME280;18301;51.076;17.046;2024-01-06T16:15:33;99728.88;;;1.77;88.18
31717;BME280;18301;51.076;17.046;2024-01-06T16:20:35;99732.78;;;1.70;88.24
31717;BME280;18301;51.076;17.046;2024-01-06T16:25:37;99736.22;;;1.72;88.33
31717;BME280;18301;51.076;17.046;2024-01-06T16:30:40;99748.09;;;1.65;88.75
31717;BME280;18301;51.076;17.046;2024-01-06T16:35:42;99749.63;;;1.51;89.27
31717;BME280;18301;51.076;17.046;2024-01-06T16:40:47;99749.47;;;1.54;89.15
31717;BME280;18301;51.076;17.046;2024-01-06T16:45:49;99744.56;;;1.83;87.63
31717;BME280;18301;51.076;17.046;2024-01-06T16:50:50;99754.63;;;1.76;87.33
31717;BME280;18301;51.076;17.046;2024-01-06T16:55:52;99756.22;;;1.61;86.90
31717;BME280;18301;51.076;17.046;2024-01-06T17:00:54;99763.53;;;1.56;87.91
31717;BME280;18301;51.076;17.046;2024-01-06T17:05:56;99761.53;;;1.61;88.07
31717;BME280;18301;51.076;17.046;2024-01-06T17:10:57;99772.47;;;1.55;87.37
31717;BME280;18301;51.076;17.046;2024-01-06T17:15:59;99770.66;;;1.37;88.33
31717;BME280;18301;51.076;17.046;2024-01-06T17:21:01;99779.91;;;1.47;88.12
31717;BME280;18301;51.076;17.046;2024-01-06T17:26:03;99783.75;;;1.60;87.76
31717;BME280;18301;51.076;17.046;2024-01-06T17:31:05;99792.44;;;1.45;87.68
31717;BME280;18301;51.076;17.046;2024-01-06T17:36:07;99804.66;;;1.49;86.72
31717;BME280;18301;51.076;17.046;2024-01-06T17:41:08;99807.22;;;1.32;87.17
31717;BME280;18301;51.076;17.046;2024-01-06T17:46:10;99813.56;;;1.48;86.59
31717;BME280;18301;51.076;17.046;2024-01-06T17:51:12;99817.63;;;1.18;87.70
31717;BME280;18301;51.076;17.046;2024-01-06T17:56:13;99819.00;;;1.26;87.74
31717;BME280;18301;51.076;17.046;2024-01-06T18:01:15;99811.19;;;1.42;87.99
31717;BME280;18301;51.076;17.046;2024-01-06T18:06:17;99821.97;;;1.39;86.80
31717;BME280;18301;51.076;17.046;2024-01-06T18:11:19;99825.03;;;1.30;86.97
31717;BME280;18301;51.076;17.046;2024-01-06T18:16:21;99823.03;;;1.35;87.55
31717;BME280;18301;51.076;17.046;2024-01-06T18:21:23;99815.91;;;1.35;87.29
31717;BME280;18301;51.076;17.046;2024-01-06T18:26:25;99814.41;;;1.30;86.85
31717;BME280;18301;51.076;17.046;2024-01-06T18:31:27;99834.41;;;1.18;87.96
31717;BME280;18301;51.076;17.046;2024-01-06T18:36:28;99830.84;;;1.38;86.04
31717;BME280;18301;51.076;17.046;2024-01-06T18:41:30;99840.84;;;1.33;87.21
31717;BME280;18301;51.076;17.046;2024-01-06T18:46:32;99842.97;;;1.25;87.41
31717;BME280;18301;51.076;17.046;2024-01-06T18:51:34;99850.81;;;1.07;86.98
31717;BME280;18301;51.076;17.046;2024-01-06T18:56:39;99850.56;;;1.13;88.02
31717;BME280;18301;51.076;17.046;2024-01-06T19:01:40;99843.66;;;1.09;87.74
31717;BME280;18301;51.076;17.046;2024-01-06T19:06:46;99844.25;;;1.16;87.84
31717;BME280;18301;51.076;17.046;2024-01-06T19:11:48;99840.06;;;1.10;87.31
31717;BME280;18301;51.076;17.046;2024-01-06T19:16:50;99844.97;;;1.20;87.58
31717;BME280;18301;51.076;17.046;2024-01-06T19:21:51;99863.16;;;1.29;86.96
31717;BME280;18301;51.076;17.046;2024-01-06T19:26:53;99863.06;;;1.11;87.49
31717;BME280;18301;51.076;17.046;2024-01-06T19:31:57;99869.81;;;0.98;88.36
31717;BME280;18301;51.076;17.046;2024-01-06T19:36:58;99868.22;;;0.94;88.69
31717;BME280;18301;51.076;17.046;2024-01-06T19:42:00;99868.91;;;0.99;88.81
31717;BME280;18301;51.076;17.046;2024-01-06T19:47:02;99865.19;;;1.03;88.50
31717;BME280;18301;51.076;17.046;2024-01-06T19:52:04;99872.47;;;0.98;88.37
31717;BME280;18301;51.076;17.046;2024-01-06T19:57:06;99872.03;;;1.09;88.29
31717;BME280;18301;51.076;17.046;2024-01-06T20:02:09;99870.88;;;0.94;88.04
31717;BME280;18301;51.076;17.046;2024-01-06T20:07:11;99875.94;;;1.00;86.44
31717;BME280;18301;51.076;17.046;2024-01-06T20:12:13;99878.56;;;0.80;87.72
31717;BME280;18301;51.076;17.046;2024-01-06T20:17:14;99882.81;;;0.63;87.81
31717;BME280;18301;51.076;17.046;2024-01-06T20:22:16;99887.00;;;0.69;87.88
31717;BME280;18301;51.076;17.046;2024-01-06T20:27:19;99877.50;;;0.63;87.96
31717;BME280;18301;51.076;17.046;2024-01-06T20:32:20;99889.81;;;0.64;88.16
31717;BME280;18301;51.076;17.046;2024-01-06T20:37:22;99873.91;;;0.64;87.87
31717;BME280;18301;51.076;17.046;2024-01-06T20:42:26;99878.13;;;0.48;88.79
31717;BME280;18301;51.076;17.046;2024-01-06T20:47:30;99891.47;;;0.47;88.29
31717;BME280;18301;51.076;17.046;2024-01-06T20:52:32;99884.25;;;0.71;87.50
31717;BME280;18301;51.076;17.046;2024-01-06T20:57:34;99895.44;;;0.79;88.02
31717;BME280;18301;51.076;17.046;2024-01-06T21:02:36;99887.72;;;0.73;86.46
31717;BME280;18301;51.076;17.046;2024-01-06T21:07:37;99893.41;;;0.63;87.32
31717;BME280;18301;51.076;17.046;2024-01-06T21:12:43;99898.00;;;0.60;87.51
31717;BME280;18301;51.076;17.046;2024-01-06T21:17:44;99900.94;;;0.52;88.13
31717;BME280;18301;51.076;17.046;2024-01-06T21:22:46;99898.84;;;0.60;87.41
31717;BME280;18301;51.076;17.046;2024-01-06T21:27:48;99902.56;;;0.56;87.33
31717;BME280;18301;51.076;17.046;2024-01-06T21:32:50;99911.44;;;0.55;87.68
31717;BME280;18301;51.076;17.046;2024-01-06T21:37:53;99914.78;;;0.60;87.82
31717;BME280;18301;51.076;17.046;2024-01-06T21:42:54;99923.19;;;0.72;87.70
31717;BME280;18301;51.076;17.046;2024-01-06T21:47:56;99925.88;;;0.70;87.67
31717;BME280;18301;51.076;17.046;2024-01-06T21:52:59;99927.25;;;0.58;87.82
31717;BME280;18301;51.076;17.046;2024-01-06T21:58:01;99925.16;;;0.66;87.91
31717;BME280;18301;51.076;17.046;2024-01-06T22:03:02;99937.63;;;0.42;88.62
31717;BME280;18301;51.076;17.046;2024-01-06T22:08:06;99935.75;;;0.22;89.70
31717;BME280;18301;51.076;17.046;2024-01-06T22:13:08;99934.38;;;0.12;90.58
31717;BME280;18301;51.076;17.046;2024-01-06T22:18:10;99942.44;;;0.09;90.46
31717;BME280;18301;51.076;17.046;2024-01-06T22:23:12;99950.38;;;0.11;90.90
31717;BME280;18301;51.076;17.046;2024-01-06T22:28:13;99951.22;;;0.11;91.29
31717;BME280;18301;51.076;17.046;2024-01-06T22:33:15;99953.97;;;0.32;90.63
31717;BME280;18301;51.076;17.046;2024-01-06T22:38:18;99946.38;;;0.22;88.83
31717;BME280;18301;51.076;17.046;2024-01-06T22:43:20;99953.59;;;-0.05;90.50
31717;BME280;18301;51.076;17.046;2024-01-06T22:48:21;99958.25;;;0.12;89.65
31717;BME280;18301;51.076;17.046;2024-01-06T22:53:23;99947.72;;;0.11;89.46
31717;BME280;18301;51.076;17.046;2024-01-06T22:58:25;99953.41;;;0.23;87.14
31717;BME280;18301;51.076;17.046;2024-01-06T23:03:27;99955.59;;;0.12;87.64
31717;BME280;18301;51.076;17.046;2024-01-06T23:08:28;99962.75;;;0.10;87.66
31717;BME280;18301;51.076;17.046;2024-01-06T23:13:30;99962.53;;;0.16;86.13
31717;BME280;18301;51.076;17.046;2024-01-06T23:18:32;99978.97;;;0.03;86.04
31717;BME280;18301;51.076;17.046;2024-01-06T23:23:36;99967.16;;;-0.12;85.89
31717;BME280;18301;51.076;17.046;2024-01-06T23:28:37;99981.31;;;-0.13;86.31
31717;BME280;18301;51.076;17.046;2024-01-06T23:33:40;99976.97;;;-0.16;86.48
31717;BME280;18301;51.076;17.046;2024-01-06T23:38:42;99978.09;;;0.02;85.50
31717;BME280;18301;51.076;17.046;2024-01-06T23:43:43;99984.38;;;-0.24;85.58
31717;BME280;18301;51.076;17.046;2024-01-06T23:48:45;99990.53;;;-0.24;87.39
31717;BME280;18301;51.076;17.046;2024-01-06T23:53:47;99988.81;;;-0.25;87.88
31717;BME280;18301;51.076;17.046;2024-01-06T23:58:52;100001.75;;;-0.15;86.39
